sensor_id;sensor_type;location;lat;lon;timestamp;P1;durP1;ratioP1;P2;durP2;ratioP2
53263;SDS011;39153;52.680;6.172;2023-07-31T00:02:06;5.35;;;2.95;;
53263;SDS011;39153;52.680;6.172;2023-07-31T00:04:32;5.45;;;3.20;;
53263;SDS011;39153;52.680;6.172;2023-07-31T00:06:58;4.40;;;2.78;;
53263;SDS011;39153;52.680;6.172;2023-07-31T00:09:23;5.68;;;3.08;;
53263;SDS011;39153;52.680;6.172;2023-07-31T00:11:49;5.10;;;2.85;;
53263;SDS011;39153;52.680;6.172;2023-07-31T00:14:15;3.88;;;2.60;;
53263;SDS011;39153;52.680;6.172;2023-07-31T00:16:40;4.28;;;2.90;;
53263;SDS011;39153;52.680;6.172;2023-07-31T00:19:06;6.38;;;2.53;;
53263;SDS011;39153;52.680;6.172;2023-07-31T00:21:32;6.72;;;2.72;;
53263;SDS011;39153;52.680;6.172;2023-07-31T00:23:57;5.45;;;2.47;;
53263;SDS011;39153;52.680;6.172;2023-07-31T00:26:23;4.47;;;2.22;;
53263;SDS011;39153;52.680;6.172;2023-07-31T00:28:49;5.18;;;2.60;;
53263;SDS011;39153;52.680;6.172;2023-07-31T00:31:14;4.07;;;1.65;;
53263;SDS011;39153;52.680;6.172;2023-07-31T00:33:40;3.63;;;2.20;;
53263;SDS011;39153;52.680;6.172;2023-07-31T00:36:06;5.65;;;2.40;;
53263;SDS011;39153;52.680;6.172;2023-07-31T00:38:31;3.45;;;1.90;;
53263;SDS011;39153;52.680;6.172;2023-07-31T00:40:57;3.05;;;1.52;;
53263;SDS011;39153;52.680;6.172;2023-07-31T00:43:23;2.88;;;1.33;;
53263;SDS011;39153;52.680;6.172;2023-07-31T00:45:49;3.08;;;1.70;;
53263;SDS011;39153;52.680;6.172;2023-07-31T00:48:15;3.83;;;1.60;;
53263;SDS011;39153;52.680;6.172;2023-07-31T00:50:41;4.05;;;1.45;;
53263;SDS011;39153;52.680;6.172;2023-07-31T00:53:07;4.03;;;1.40;;
53263;SDS011;39153;52.680;6.172;2023-07-31T00:55:32;2.28;;;1.08;;
53263;SDS011;39153;52.680;6.172;2023-07-31T00:57:58;3.03;;;1.00;;
53263;SDS011;39153;52.680;6.172;2023-07-31T01:00:24;2.33;;;1.02;;
53263;SDS011;39153;52.680;6.172;2023-07-31T01:02:50;2.67;;;1.25;;
53263;SDS011;39153;52.680;6.172;2023-07-31T01:05:17;3.42;;;1.20;;
53263;SDS011;39153;52.680;6.172;2023-07-31T01:08:04;3.00;;;1.27;;
53263;SDS011;39153;52.680;6.172;2023-07-31T01:10:37;3.97;;;1.77;;
53263;SDS011;39153;52.680;6.172;2023-07-31T01:13:10;2.88;;;1.30;;
53263;SDS011;39153;52.680;6.172;2023-07-31T01:15:37;2.92;;;1.23;;
53263;SDS011;39153;52.680;6.172;2023-07-31T01:18:03;3.13;;;1.50;;
53263;SDS011;39153;52.680;6.172;2023-07-31T01:20:29;3.10;;;1.38;;
53263;SDS011;39153;52.680;6.172;2023-07-31T01:23:08;4.25;;;1.58;;
53263;SDS011;39153;52.680;6.172;2023-07-31T01:26:12;2.58;;;1.35;;
53263;SDS011;39153;52.680;6.172;2023-07-31T01:31:20;3.80;;;1.80;;
53263;SDS011;39153;52.680;6.172;2023-07-31T01:33:49;4.35;;;1.70;;
53263;SDS011;39153;52.680;6.172;2023-07-31T01:36:17;4.72;;;2.00;;
53263;SDS011;39153;52.680;6.172;2023-07-31T01:38:43;3.40;;;1.42;;
53263;SDS011;39153;52.680;6.172;2023-07-31T01:41:09;4.65;;;2.25;;
53263;SDS011;39153;52.680;6.172;2023-07-31T01:43:35;6.63;;;2.00;;
53263;SDS011;39153;52.680;6.172;2023-07-31T01:46:00;2.85;;;1.40;;
53263;SDS011;39153;52.680;6.172;2023-07-31T01:48:26;4.80;;;1.92;;
53263;SDS011;39153;52.680;6.172;2023-07-31T01:50:52;3.92;;;2.10;;
53263;SDS011;39153;52.680;6.172;2023-07-31T01:53:18;3.70;;;2.15;;
53263;SDS011;39153;52.680;6.172;2023-07-31T01:55:43;3.70;;;2.22;;
53263;SDS011;39153;52.680;6.172;2023-07-31T01:58:09;4.25;;;2.50;;
53263;SDS011;39153;52.680;6.172;2023-07-31T02:00:35;4.35;;;2.15;;
53263;SDS011;39153;52.680;6.172;2023-07-31T02:03:00;5.72;;;2.50;;
53263;SDS011;39153;52.680;6.172;2023-07-31T02:05:26;3.55;;;2.00;;
53263;SDS011;39153;52.680;6.172;2023-07-31T02:07:52;3.72;;;2.03;;
53263;SDS011;39153;52.680;6.172;2023-07-31T02:10:17;3.42;;;1.52;;
53263;SDS011;39153;52.680;6.172;2023-07-31T02:12:43;3.53;;;1.70;;
53263;SDS011;39153;52.680;6.172;2023-07-31T02:15:09;5.03;;;1.92;;
53263;SDS011;39153;52.680;6.172;2023-07-31T02:17:35;5.15;;;2.00;;
53263;SDS011;39153;52.680;6.172;2023-07-31T02:20:00;3.65;;;1.85;;
53263;SDS011;39153;52.680;6.172;2023-07-31T02:22:26;3.42;;;1.52;;
53263;SDS011;39153;52.680;6.172;2023-07-31T02:24:52;2.95;;;1.60;;
53263;SDS011;39153;52.680;6.172;2023-07-31T02:27:17;5.82;;;1.83;;
53263;SDS011;39153;52.680;6.172;2023-07-31T02:29:43;5.00;;;2.35;;
53263;SDS011;39153;52.680;6.172;2023-07-31T02:32:09;4.85;;;1.80;;
53263;SDS011;39153;52.680;6.172;2023-07-31T02:34:35;6.13;;;2.63;;
53263;SDS011;39153;52.680;6.172;2023-07-31T02:37:00;5.35;;;2.70;;
53263;SDS011;39153;52.680;6.172;2023-07-31T02:39:26;4.82;;;2.70;;
53263;SDS011;39153;52.680;6.172;2023-07-31T02:41:52;4.90;;;2.60;;
53263;SDS011;39153;52.680;6.172;2023-07-31T02:44:17;6.40;;;2.80;;
53263;SDS011;39153;52.680;6.172;2023-07-31T02:46:43;5.45;;;3.38;;
53263;SDS011;39153;52.680;6.172;2023-07-31T02:49:09;6.10;;;2.78;;
53263;SDS011;39153;52.680;6.172;2023-07-31T02:51:34;5.82;;;2.83;;
53263;SDS011;39153;52.680;6.172;2023-07-31T02:54:00;5.35;;;2.97;;
53263;SDS011;39153;52.680;6.172;2023-07-31T02:56:26;7.78;;;2.55;;
53263;SDS011;39153;52.680;6.172;2023-07-31T02:58:51;6.07;;;3.03;;
53263;SDS011;39153;52.680;6.172;2023-07-31T03:01:17;7.40;;;3.10;;
53263;SDS011;39153;52.680;6.172;2023-07-31T03:03:42;7.22;;;3.28;;
53263;SDS011;39153;52.680;6.172;2023-07-31T03:06:08;7.85;;;3.00;;
53263;SDS011;39153;52.680;6.172;2023-07-31T03:08:34;6.72;;;3.53;;
53263;SDS011;39153;52.680;6.172;2023-07-31T03:11:00;7.45;;;3.47;;
53263;SDS011;39153;52.680;6.172;2023-07-31T03:13:25;9.35;;;3.97;;
53263;SDS011;39153;52.680;6.172;2023-07-31T03:15:51;6.95;;;3.30;;
53263;SDS011;39153;52.680;6.172;2023-07-31T03:18:17;8.38;;;3.33;;
53263;SDS011;39153;52.680;6.172;2023-07-31T03:20:43;7.85;;;3.13;;
53263;SDS011;39153;52.680;6.172;2023-07-31T03:23:09;10.48;;;3.78;;
53263;SDS011;39153;52.680;6.172;2023-07-31T03:25:35;7.03;;;3.10;;
53263;SDS011;39153;52.680;6.172;2023-07-31T03:28:00;10.27;;;3.90;;
53263;SDS011;39153;52.680;6.172;2023-07-31T03:30:26;9.90;;;3.70;;
53263;SDS011;39153;52.680;6.172;2023-07-31T03:32:52;6.47;;;2.90;;
53263;SDS011;39153;52.680;6.172;2023-07-31T03:35:18;8.95;;;3.45;;
53263;SDS011;39153;52.680;6.172;2023-07-31T03:37:43;10.90;;;3.72;;
53263;SDS011;39153;52.680;6.172;2023-07-31T03:40:09;7.63;;;3.22;;
53263;SDS011;39153;52.680;6.172;2023-07-31T03:42:35;9.40;;;4.20;;
53263;SDS011;39153;52.680;6.172;2023-07-31T03:45:01;10.60;;;4.55;;
53263;SDS011;39153;52.680;6.172;2023-07-31T03:47:27;9.27;;;4.10;;
53263;SDS011;39153;52.680;6.172;2023-07-31T03:49:54;7.35;;;4.07;;
53263;SDS011;39153;52.680;6.172;2023-07-31T03:52:19;11.10;;;5.03;;
53263;SDS011;39153;52.680;6.172;2023-07-31T03:54:45;11.25;;;5.35;;
53263;SDS011;39153;52.680;6.172;2023-07-31T03:57:11;12.13;;;4.45;;
53263;SDS011;39153;52.680;6.172;2023-07-31T03:59:37;15.93;;;5.30;;
53263;SDS011;39153;52.680;6.172;2023-07-31T04:02:04;18.08;;;6.32;;
53263;SDS011;39153;52.680;6.172;2023-07-31T04:04:30;21.27;;;6.97;;
53263;SDS011;39153;52.680;6.172;2023-07-31T04:06:56;22.55;;;7.93;;
53263;SDS011;39153;52.680;6.172;2023-07-31T04:09:21;24.35;;;8.95;;
53263;SDS011;39153;52.680;6.172;2023-07-31T04:11:47;37.42;;;8.88;;
53263;SDS011;39153;52.680;6.172;2023-07-31T04:14:13;36.83;;;9.15;;
53263;SDS011;39153;52.680;6.172;2023-07-31T04:16:38;31.92;;;7.50;;
53263;SDS011;39153;52.680;6.172;2023-07-31T04:19:04;29.02;;;9.95;;
53263;SDS011;39153;52.680;6.172;2023-07-31T04:21:30;27.52;;;10.23;;
53263;SDS011;39153;52.680;6.172;2023-07-31T04:23:55;29.63;;;10.45;;
53263;SDS011;39153;52.680;6.172;2023-07-31T04:26:21;28.75;;;10.15;;
53263;SDS011;39153;52.680;6.172;2023-07-31T04:28:47;22.80;;;8.63;;
53263;SDS011;39153;52.680;6.172;2023-07-31T04:31:13;26.10;;;6.68;;
53263;SDS011;39153;52.680;6.172;2023-07-31T04:33:39;26.80;;;9.65;;
53263;SDS011;39153;52.680;6.172;2023-07-31T04:36:05;26.05;;;9.50;;
53263;SDS011;39153;52.680;6.172;2023-07-31T04:38:30;28.23;;;10.40;;
53263;SDS011;39153;52.680;6.172;2023-07-31T04:40:56;32.03;;;10.38;;
53263;SDS011;39153;52.680;6.172;2023-07-31T04:43:22;33.67;;;11.43;;
53263;SDS011;39153;52.680;6.172;2023-07-31T04:45:47;32.13;;;11.10;;
53263;SDS011;39153;52.680;6.172;2023-07-31T04:48:14;28.98;;;10.57;;
53263;SDS011;39153;52.680;6.172;2023-07-31T04:50:40;30.27;;;10.65;;
53263;SDS011;39153;52.680;6.172;2023-07-31T04:53:05;28.02;;;9.88;;
53263;SDS011;39153;52.680;6.172;2023-07-31T04:55:31;36.67;;;11.07;;
53263;SDS011;39153;52.680;6.172;2023-07-31T04:57:58;39.53;;;11.60;;
53263;SDS011;39153;52.680;6.172;2023-07-31T05:00:24;36.20;;;10.75;;
53263;SDS011;39153;52.680;6.172;2023-07-31T05:02:49;29.02;;;10.68;;
53263;SDS011;39153;52.680;6.172;2023-07-31T05:05:15;38.13;;;12.55;;
53263;SDS011;39153;52.680;6.172;2023-07-31T05:07:41;34.45;;;11.73;;
53263;SDS011;39153;52.680;6.172;2023-07-31T05:10:07;33.47;;;10.77;;
53263;SDS011;39153;52.680;6.172;2023-07-31T05:12:33;32.58;;;10.80;;
53263;SDS011;39153;52.680;6.172;2023-07-31T05:14:58;47.25;;;13.05;;
53263;SDS011;39153;52.680;6.172;2023-07-31T05:17:24;41.03;;;13.63;;
53263;SDS011;39153;52.680;6.172;2023-07-31T05:19:50;38.08;;;11.73;;
53263;SDS011;39153;52.680;6.172;2023-07-31T05:22:15;41.97;;;9.15;;
53263;SDS011;39153;52.680;6.172;2023-07-31T05:24:41;33.60;;;11.45;;
53263;SDS011;39153;52.680;6.172;2023-07-31T05:27:07;29.90;;;11.18;;
53263;SDS011;39153;52.680;6.172;2023-07-31T05:29:33;34.70;;;8.85;;
53263;SDS011;39153;52.680;6.172;2023-07-31T05:31:59;39.63;;;9.45;;
53263;SDS011;39153;52.680;6.172;2023-07-31T05:34:24;32.92;;;10.98;;
53263;SDS011;39153;52.680;6.172;2023-07-31T05:36:50;32.75;;;11.93;;
53263;SDS011;39153;52.680;6.172;2023-07-31T05:39:16;33.70;;;11.30;;
53263;SDS011;39153;52.680;6.172;2023-07-31T05:41:43;32.13;;;12.25;;
53263;SDS011;39153;52.680;6.172;2023-07-31T05:44:09;27.23;;;11.55;;
53263;SDS011;39153;52.680;6.172;2023-07-31T05:46:34;35.20;;;11.63;;
53263;SDS011;39153;52.680;6.172;2023-07-31T05:49:00;36.45;;;12.43;;
53263;SDS011;39153;52.680;6.172;2023-07-31T05:51:26;34.90;;;12.97;;
53263;SDS011;39153;52.680;6.172;2023-07-31T05:53:52;30.35;;;12.35;;
53263;SDS011;39153;52.680;6.172;2023-07-31T05:56:18;27.80;;;10.73;;
53263;SDS011;39153;52.680;6.172;2023-07-31T05:58:44;31.50;;;11.60;;
53263;SDS011;39153;52.680;6.172;2023-07-31T06:01:10;32.53;;;12.38;;
53263;SDS011;39153;52.680;6.172;2023-07-31T06:03:35;32.08;;;11.90;;
53263;SDS011;39153;52.680;6.172;2023-07-31T06:06:01;28.95;;;8.93;;
53263;SDS011;39153;52.680;6.172;2023-07-31T06:08:27;28.45;;;11.85;;
53263;SDS011;39153;52.680;6.172;2023-07-31T06:10:52;35.75;;;13.90;;
53263;SDS011;39153;52.680;6.172;2023-07-31T06:13:18;35.03;;;12.98;;
53263;SDS011;39153;52.680;6.172;2023-07-31T06:15:44;28.00;;;12.63;;
53263;SDS011;39153;52.680;6.172;2023-07-31T06:18:10;36.00;;;14.65;;
53263;SDS011;39153;52.680;6.172;2023-07-31T06:20:35;31.80;;;14.95;;
53263;SDS011;39153;52.680;6.172;2023-07-31T06:23:01;29.98;;;13.55;;
53263;SDS011;39153;52.680;6.172;2023-07-31T06:25:28;33.72;;;13.98;;
53263;SDS011;39153;52.680;6.172;2023-07-31T06:27:54;27.65;;;10.00;;
53263;SDS011;39153;52.680;6.172;2023-07-31T06:30:20;25.60;;;12.27;;
53263;SDS011;39153;52.680;6.172;2023-07-31T06:32:45;21.13;;;10.80;;
53263;SDS011;39153;52.680;6.172;2023-07-31T06:35:11;20.08;;;9.80;;
53263;SDS011;39153;52.680;6.172;2023-07-31T06:37:37;19.90;;;9.52;;
53263;SDS011;39153;52.680;6.172;2023-07-31T06:40:05;20.13;;;8.80;;
53263;SDS011;39153;52.680;6.172;2023-07-31T06:42:34;17.67;;;7.65;;
53263;SDS011;39153;52.680;6.172;2023-07-31T06:45:00;17.52;;;8.07;;
53263;SDS011;39153;52.680;6.172;2023-07-31T06:47:29;13.48;;;6.70;;
53263;SDS011;39153;52.680;6.172;2023-07-31T06:49:55;13.25;;;6.68;;
53263;SDS011;39153;52.680;6.172;2023-07-31T06:52:21;12.93;;;5.95;;
53263;SDS011;39153;52.680;6.172;2023-07-31T06:55:03;12.93;;;5.45;;
53263;SDS011;39153;52.680;6.172;2023-07-31T06:57:43;17.73;;;6.28;;
53263;SDS011;39153;52.680;6.172;2023-07-31T07:00:09;16.27;;;5.38;;
53263;SDS011;39153;52.680;6.172;2023-07-31T07:02:35;17.05;;;6.80;;
53263;SDS011;39153;52.680;6.172;2023-07-31T07:05:01;13.50;;;6.18;;
53263;SDS011;39153;52.680;6.172;2023-07-31T07:07:27;11.48;;;5.55;;
53263;SDS011;39153;52.680;6.172;2023-07-31T07:09:53;11.82;;;6.00;;
53263;SDS011;39153;52.680;6.172;2023-07-31T07:12:18;12.85;;;5.90;;
53263;SDS011;39153;52.680;6.172;2023-07-31T07:14:44;11.57;;;6.05;;
53263;SDS011;39153;52.680;6.172;2023-07-31T07:17:12;9.65;;;5.38;;
53263;SDS011;39153;52.680;6.172;2023-07-31T07:19:41;13.23;;;5.68;;
53263;SDS011;39153;52.680;6.172;2023-07-31T07:22:07;12.70;;;5.70;;
53263;SDS011;39153;52.680;6.172;2023-07-31T07:24:33;8.52;;;4.05;;
53263;SDS011;39153;52.680;6.172;2023-07-31T07:26:59;9.65;;;4.45;;
53263;SDS011;39153;52.680;6.172;2023-07-31T07:29:24;8.48;;;4.85;;
53263;SDS011;39153;52.680;6.172;2023-07-31T07:31:50;7.38;;;3.10;;
53263;SDS011;39153;52.680;6.172;2023-07-31T07:34:16;7.72;;;4.53;;
53263;SDS011;39153;52.680;6.172;2023-07-31T07:36:41;9.70;;;4.20;;
53263;SDS011;39153;52.680;6.172;2023-07-31T07:39:08;9.30;;;3.75;;
53263;SDS011;39153;52.680;6.172;2023-07-31T07:41:35;11.52;;;4.57;;
53263;SDS011;39153;52.680;6.172;2023-07-31T07:44:01;9.70;;;4.95;;
53263;SDS011;39153;52.680;6.172;2023-07-31T07:46:27;7.60;;;4.03;;
53263;SDS011;39153;52.680;6.172;2023-07-31T07:48:53;8.80;;;4.70;;
53263;SDS011;39153;52.680;6.172;2023-07-31T07:51:19;7.65;;;4.35;;
53263;SDS011;39153;52.680;6.172;2023-07-31T07:53:44;11.00;;;4.65;;
53263;SDS011;39153;52.680;6.172;2023-07-31T07:56:10;8.55;;;5.00;;
53263;SDS011;39153;52.680;6.172;2023-07-31T07:58:36;8.57;;;5.60;;
53263;SDS011;39153;52.680;6.172;2023-07-31T08:01:02;7.97;;;3.53;;
53263;SDS011;39153;52.680;6.172;2023-07-31T08:03:27;8.35;;;3.60;;
53263;SDS011;39153;52.680;6.172;2023-07-31T08:05:57;7.32;;;4.50;;
53263;SDS011;39153;52.680;6.172;2023-07-31T08:08:26;7.22;;;4.18;;
53263;SDS011;39153;52.680;6.172;2023-07-31T08:10:52;8.90;;;4.38;;
53263;SDS011;39153;52.680;6.172;2023-07-31T08:13:18;6.80;;;3.72;;
53263;SDS011;39153;52.680;6.172;2023-07-31T08:15:44;9.60;;;4.10;;
53263;SDS011;39153;52.680;6.172;2023-07-31T08:18:10;5.57;;;2.83;;
53263;SDS011;39153;52.680;6.172;2023-07-31T08:20:36;8.55;;;3.90;;
53263;SDS011;39153;52.680;6.172;2023-07-31T08:23:03;6.28;;;3.97;;
53263;SDS011;39153;52.680;6.172;2023-07-31T08:25:29;6.05;;;3.25;;
53263;SDS011;39153;52.680;6.172;2023-07-31T08:27:55;5.43;;;3.35;;
53263;SDS011;39153;52.680;6.172;2023-07-31T08:30:21;7.45;;;4.10;;
53263;SDS011;39153;52.680;6.172;2023-07-31T08:32:47;6.07;;;4.10;;
53263;SDS011;39153;52.680;6.172;2023-07-31T08:35:12;6.93;;;3.28;;
53263;SDS011;39153;52.680;6.172;2023-07-31T08:37:38;6.70;;;3.25;;
53263;SDS011;39153;52.680;6.172;2023-07-31T08:40:04;5.20;;;3.03;;
53263;SDS011;39153;52.680;6.172;2023-07-31T08:42:31;7.13;;;3.80;;
53263;SDS011;39153;52.680;6.172;2023-07-31T08:44:57;5.90;;;3.25;;
53263;SDS011;39153;52.680;6.172;2023-07-31T08:47:25;5.80;;;3.75;;
53263;SDS011;39153;52.680;6.172;2023-07-31T08:49:52;7.07;;;3.35;;
53263;SDS011;39153;52.680;6.172;2023-07-31T08:52:19;7.70;;;3.53;;
53263;SDS011;39153;52.680;6.172;2023-07-31T08:54:45;5.78;;;3.22;;
53263;SDS011;39153;52.680;6.172;2023-07-31T08:57:11;7.85;;;3.70;;
53263;SDS011;39153;52.680;6.172;2023-07-31T08:59:37;7.43;;;3.45;;
53263;SDS011;39153;52.680;6.172;2023-07-31T09:02:07;5.70;;;3.10;;
53263;SDS011;39153;52.680;6.172;2023-07-31T09:04:34;5.18;;;3.05;;
53263;SDS011;39153;52.680;6.172;2023-07-31T09:07:00;5.80;;;3.50;;
53263;SDS011;39153;52.680;6.172;2023-07-31T09:09:28;5.78;;;3.08;;
53263;SDS011;39153;52.680;6.172;2023-07-31T09:11:54;5.25;;;2.60;;
53263;SDS011;39153;52.680;6.172;2023-07-31T09:14:21;4.68;;;2.38;;
53263;SDS011;39153;52.680;6.172;2023-07-31T09:16:53;6.55;;;3.15;;
53263;SDS011;39153;52.680;6.172;2023-07-31T09:19:34;3.47;;;2.55;;
53263;SDS011;39153;52.680;6.172;2023-07-31T09:22:02;4.95;;;3.10;;
53263;SDS011;39153;52.680;6.172;2023-07-31T09:24:30;5.57;;;3.10;;
53263;SDS011;39153;52.680;6.172;2023-07-31T09:26:57;4.55;;;2.92;;
53263;SDS011;39153;52.680;6.172;2023-07-31T09:29:24;4.50;;;3.20;;
53263;SDS011;39153;52.680;6.172;2023-07-31T09:31:51;5.18;;;3.10;;
53263;SDS011;39153;52.680;6.172;2023-07-31T09:34:18;5.18;;;3.25;;
53263;SDS011;39153;52.680;6.172;2023-07-31T09:36:46;4.22;;;2.80;;
53263;SDS011;39153;52.680;6.172;2023-07-31T09:39:13;5.30;;;2.95;;
53263;SDS011;39153;52.680;6.172;2023-07-31T09:41:44;5.68;;;3.25;;
53263;SDS011;39153;52.680;6.172;2023-07-31T09:44:18;4.05;;;2.60;;
53263;SDS011;39153;52.680;6.172;2023-07-31T09:46:44;4.85;;;3.50;;
53263;SDS011;39153;52.680;6.172;2023-07-31T09:49:10;3.97;;;2.53;;
53263;SDS011;39153;52.680;6.172;2023-07-31T09:51:37;4.30;;;2.90;;
53263;SDS011;39153;52.680;6.172;2023-07-31T09:54:08;5.05;;;3.50;;
53263;SDS011;39153;52.680;6.172;2023-07-31T09:56:36;4.35;;;3.08;;
53263;SDS011;39153;52.680;6.172;2023-07-31T09:59:06;4.80;;;2.70;;
53263;SDS011;39153;52.680;6.172;2023-07-31T10:01:34;3.53;;;2.40;;
53263;SDS011;39153;52.680;6.172;2023-07-31T10:04:00;4.85;;;3.05;;
53263;SDS011;39153;52.680;6.172;2023-07-31T10:06:28;4.78;;;2.65;;
53263;SDS011;39153;52.680;6.172;2023-07-31T10:08:54;4.13;;;2.35;;
53263;SDS011;39153;52.680;6.172;2023-07-31T10:11:21;3.55;;;2.20;;
53263;SDS011;39153;52.680;6.172;2023-07-31T10:13:49;4.95;;;2.28;;
53263;SDS011;39153;52.680;6.172;2023-07-31T10:16:15;3.15;;;2.00;;
53263;SDS011;39153;52.680;6.172;2023-07-31T10:18:41;3.20;;;1.73;;
53263;SDS011;39153;52.680;6.172;2023-07-31T10:21:08;2.97;;;1.95;;
53263;SDS011;39153;52.680;6.172;2023-07-31T10:23:35;2.50;;;1.60;;
53263;SDS011;39153;52.680;6.172;2023-07-31T10:26:01;2.38;;;1.40;;
53263;SDS011;39153;52.680;6.172;2023-07-31T10:28:28;2.65;;;1.40;;
53263;SDS011;39153;52.680;6.172;2023-07-31T10:30:56;2.60;;;1.60;;
53263;SDS011;39153;52.680;6.172;2023-07-31T10:33:22;3.05;;;1.83;;
53263;SDS011;39153;52.680;6.172;2023-07-31T10:35:48;4.65;;;2.42;;
53263;SDS011;39153;52.680;6.172;2023-07-31T10:38:14;3.70;;;2.70;;
53263;SDS011;39153;52.680;6.172;2023-07-31T10:40:40;4.22;;;2.90;;
53263;SDS011;39153;52.680;6.172;2023-07-31T10:43:06;3.15;;;2.50;;
53263;SDS011;39153;52.680;6.172;2023-07-31T10:45:37;4.55;;;2.70;;
53263;SDS011;39153;52.680;6.172;2023-07-31T10:48:07;3.15;;;2.20;;
53263;SDS011;39153;52.680;6.172;2023-07-31T10:50:40;3.28;;;1.90;;
53263;SDS011;39153;52.680;6.172;2023-07-31T10:53:26;4.32;;;2.10;;
53263;SDS011;39153;52.680;6.172;2023-07-31T10:55:52;2.80;;;1.95;;
53263;SDS011;39153;52.680;6.172;2023-07-31T10:58:22;2.80;;;2.20;;
53263;SDS011;39153;52.680;6.172;2023-07-31T11:00:48;4.15;;;2.10;;
53263;SDS011;39153;52.680;6.172;2023-07-31T11:03:17;2.60;;;1.90;;
53263;SDS011;39153;52.680;6.172;2023-07-31T11:13:28;1.80;;;0.88;;
53263;SDS011;39153;52.680;6.172;2023-07-31T11:16:06;2.17;;;1.20;;
53263;SDS011;39153;52.680;6.172;2023-07-31T11:18:31;3.00;;;1.05;;
53263;SDS011;39153;52.680;6.172;2023-07-31T11:20:57;2.83;;;1.23;;
53263;SDS011;39153;52.680;6.172;2023-07-31T11:23:23;2.47;;;0.90;;
53263;SDS011;39153;52.680;6.172;2023-07-31T11:25:50;3.15;;;0.95;;
53263;SDS011;39153;52.680;6.172;2023-07-31T11:28:17;5.75;;;1.35;;
53263;SDS011;39153;52.680;6.172;2023-07-31T11:30:44;7.25;;;1.60;;
53263;SDS011;39153;52.680;6.172;2023-07-31T11:33:11;5.25;;;1.63;;
53263;SDS011;39153;52.680;6.172;2023-07-31T11:35:45;6.10;;;1.70;;
53263;SDS011;39153;52.680;6.172;2023-07-31T11:38:34;8.13;;;2.13;;
53263;SDS011;39153;52.680;6.172;2023-07-31T11:41:02;7.35;;;1.98;;
53263;SDS011;39153;52.680;6.172;2023-07-31T11:43:30;4.88;;;2.08;;
53263;SDS011;39153;52.680;6.172;2023-07-31T11:45:57;5.53;;;1.60;;
53263;SDS011;39153;52.680;6.172;2023-07-31T11:48:25;7.07;;;2.08;;
53263;SDS011;39153;52.680;6.172;2023-07-31T11:50:53;6.53;;;1.95;;
53263;SDS011;39153;52.680;6.172;2023-07-31T11:53:25;4.68;;;1.85;;
53263;SDS011;39153;52.680;6.172;2023-07-31T11:56:02;6.68;;;2.00;;
53263;SDS011;39153;52.680;6.172;2023-07-31T11:58:31;7.78;;;2.10;;
53263;SDS011;39153;52.680;6.172;2023-07-31T12:00:59;9.43;;;2.22;;
53263;SDS011;39153;52.680;6.172;2023-07-31T12:03:25;7.93;;;2.33;;
53263;SDS011;39153;52.680;6.172;2023-07-31T12:05:52;8.00;;;2.33;;
53263;SDS011;39153;52.680;6.172;2023-07-31T12:08:20;7.30;;;2.20;;
53263;SDS011;39153;52.680;6.172;2023-07-31T12:10:49;8.05;;;2.42;;
53263;SDS011;39153;52.680;6.172;2023-07-31T12:13:23;8.10;;;2.40;;
53263;SDS011;39153;52.680;6.172;2023-07-31T12:15:54;11.45;;;2.60;;
53263;SDS011;39153;52.680;6.172;2023-07-31T12:18:22;7.35;;;2.30;;
53263;SDS011;39153;52.680;6.172;2023-07-31T12:20:56;10.48;;;2.90;;
53263;SDS011;39153;52.680;6.172;2023-07-31T12:28:37;8.65;;;2.22;;
53263;SDS011;39153;52.680;6.172;2023-07-31T12:31:14;8.25;;;2.30;;
53263;SDS011;39153;52.680;6.172;2023-07-31T12:33:42;8.45;;;2.40;;
53263;SDS011;39153;52.680;6.172;2023-07-31T12:36:12;8.20;;;2.25;;
53263;SDS011;39153;52.680;6.172;2023-07-31T12:38:40;10.60;;;2.10;;
53263;SDS011;39153;52.680;6.172;2023-07-31T12:41:06;9.45;;;2.58;;
53263;SDS011;39153;52.680;6.172;2023-07-31T12:43:33;8.05;;;2.30;;
53263;SDS011;39153;52.680;6.172;2023-07-31T12:46:02;6.00;;;1.90;;
53263;SDS011;39153;52.680;6.172;2023-07-31T12:48:29;5.70;;;2.10;;
53263;SDS011;39153;52.680;6.172;2023-07-31T12:50:54;7.32;;;2.20;;
53263;SDS011;39153;52.680;6.172;2023-07-31T12:53:20;7.93;;;2.30;;
53263;SDS011;39153;52.680;6.172;2023-07-31T12:55:46;6.75;;;2.25;;
53263;SDS011;39153;52.680;6.172;2023-07-31T12:58:12;7.35;;;2.35;;
53263;SDS011;39153;52.680;6.172;2023-07-31T13:00:38;8.25;;;1.83;;
53263;SDS011;39153;52.680;6.172;2023-07-31T13:03:03;8.70;;;2.20;;
53263;SDS011;39153;52.680;6.172;2023-07-31T13:05:29;8.38;;;2.25;;
53263;SDS011;39153;52.680;6.172;2023-07-31T13:07:55;7.45;;;2.25;;
53263;SDS011;39153;52.680;6.172;2023-07-31T13:10:22;5.22;;;1.80;;
53263;SDS011;39153;52.680;6.172;2023-07-31T13:12:48;9.40;;;2.40;;
53263;SDS011;39153;52.680;6.172;2023-07-31T13:15:14;6.57;;;2.40;;
53263;SDS011;39153;52.680;6.172;2023-07-31T13:17:40;6.55;;;2.10;;
53263;SDS011;39153;52.680;6.172;2023-07-31T13:20:06;8.65;;;3.30;;
53263;SDS011;39153;52.680;6.172;2023-07-31T13:22:32;11.77;;;3.33;;
53263;SDS011;39153;52.680;6.172;2023-07-31T13:24:58;9.13;;;2.60;;
53263;SDS011;39153;52.680;6.172;2023-07-31T13:27:24;8.35;;;3.22;;
53263;SDS011;39153;52.680;6.172;2023-07-31T13:29:50;9.60;;;3.30;;
53263;SDS011;39153;52.680;6.172;2023-07-31T13:32:16;9.77;;;3.67;;
53263;SDS011;39153;52.680;6.172;2023-07-31T13:34:43;10.50;;;3.25;;
53263;SDS011;39153;52.680;6.172;2023-07-31T13:37:09;8.52;;;3.75;;
53263;SDS011;39153;52.680;6.172;2023-07-31T13:39:35;10.27;;;3.63;;
53263;SDS011;39153;52.680;6.172;2023-07-31T13:42:04;9.27;;;3.50;;
53263;SDS011;39153;52.680;6.172;2023-07-31T13:44:34;7.30;;;3.35;;
53263;SDS011;39153;52.680;6.172;2023-07-31T13:47:00;8.30;;;2.83;;
53263;SDS011;39153;52.680;6.172;2023-07-31T13:49:27;9.07;;;2.65;;
53263;SDS011;39153;52.680;6.172;2023-07-31T13:51:53;9.23;;;2.70;;
53263;SDS011;39153;52.680;6.172;2023-07-31T13:54:18;7.75;;;2.70;;
53263;SDS011;39153;52.680;6.172;2023-07-31T13:56:44;10.07;;;2.70;;
53263;SDS011;39153;52.680;6.172;2023-07-31T13:59:10;9.38;;;2.70;;
53263;SDS011;39153;52.680;6.172;2023-07-31T14:01:36;8.32;;;2.75;;
53263;SDS011;39153;52.680;6.172;2023-07-31T14:04:02;9.13;;;3.40;;
53263;SDS011;39153;52.680;6.172;2023-07-31T14:06:28;7.55;;;3.15;;
53263;SDS011;39153;52.680;6.172;2023-07-31T14:08:54;10.30;;;3.70;;
53263;SDS011;39153;52.680;6.172;2023-07-31T14:11:21;9.60;;;3.50;;
53263;SDS011;39153;52.680;6.172;2023-07-31T14:13:47;10.70;;;3.30;;
53263;SDS011;39153;52.680;6.172;2023-07-31T14:16:13;9.68;;;3.33;;
53263;SDS011;39153;52.680;6.172;2023-07-31T14:18:39;10.75;;;3.40;;
53263;SDS011;39153;52.680;6.172;2023-07-31T14:21:04;7.40;;;3.28;;
53263;SDS011;39153;52.680;6.172;2023-07-31T14:23:30;9.40;;;2.90;;
53263;SDS011;39153;52.680;6.172;2023-07-31T14:25:56;8.05;;;2.75;;
53263;SDS011;39153;52.680;6.172;2023-07-31T14:28:22;7.10;;;2.55;;
53263;SDS011;39153;52.680;6.172;2023-07-31T14:30:47;7.50;;;2.78;;
53263;SDS011;39153;52.680;6.172;2023-07-31T14:33:13;7.60;;;2.78;;
53263;SDS011;39153;52.680;6.172;2023-07-31T14:35:39;6.68;;;2.50;;
53263;SDS011;39153;52.680;6.172;2023-07-31T14:38:04;7.85;;;2.65;;
53263;SDS011;39153;52.680;6.172;2023-07-31T14:40:30;6.93;;;2.80;;
53263;SDS011;39153;52.680;6.172;2023-07-31T14:42:56;6.78;;;2.75;;
53263;SDS011;39153;52.680;6.172;2023-07-31T14:45:21;7.05;;;3.20;;
53263;SDS011;39153;52.680;6.172;2023-07-31T14:47:47;8.13;;;3.28;;
53263;SDS011;39153;52.680;6.172;2023-07-31T14:50:13;6.20;;;2.70;;
53263;SDS011;39153;52.680;6.172;2023-07-31T14:52:39;6.07;;;2.80;;
53263;SDS011;39153;52.680;6.172;2023-07-31T14:55:04;7.32;;;3.00;;
53263;SDS011;39153;52.680;6.172;2023-07-31T14:57:30;7.05;;;3.50;;